Gouwestroom — PDGR — position and weather

sailwx.info

Track history (hours):
 
Tides and Currents Weather Stations Pressure Air Temp Water Temp Dewpoint Dewpoint Depression Visibility Wind Speed Wind Dir Waves Ship Positions

Gouwestroom

Last reported at 2015-Apr-21 18:05 UTC. Time now 2015-Apr-21 19:07 UTC.
Position N 54°09' E 012°06'.

Length 20 m; draft 2.5 m.

Type: Tug. MMSI: 246166000.

Date/timePositionNaut miles runAvg speedWind from/ knotsBaromVisibWave heightAir tempDewpointWater temp
2015-Apr-21 18:05N 54°09' E 012°06'0 0.0
2015-Apr-21 17:29N 54°09' E 012°06'0 0.0
2015-Apr-21 16:31N 54°09' E 012°06'0 0.0
2015-Apr-21 15:31N 54°09' E 012°06'0 0.0
2015-Apr-21 14:28N 54°09' E 012°06'0 0.0
2015-Apr-21 13:28N 54°09' E 012°06'0 0.0
2015-Apr-21 12:28N 54°09' E 012°06'0 0.0
2015-Apr-21 11:22N 54°09' E 012°06'0 0.0
2015-Apr-21 10:25N 54°09' E 012°06'0 0.0
2015-Apr-21 09:28N 54°09' E 012°06'0 0.0
2015-Apr-21 08:31N 54°09' E 012°06'0 0.0
2015-Apr-21 07:28N 54°09' E 012°06'0 0.0
2015-Apr-21 06:31N 54°09' E 012°06'0 0.0
2015-Apr-21 05:31N 54°09' E 012°06'0 0.0
2015-Apr-21 04:28N 54°09' E 012°06'0 0.0
2015-Apr-21 03:31N 54°09' E 012°06'0 0.0
2015-Apr-21 02:31N 54°09' E 012°06'0 0.2
2015-Apr-21 01:33N 54°09' E 012°06'4 3.5
2015-Apr-21 00:33N 54°12' E 012°06'4 3.6
2015-Apr-20 23:33N 54°15' E 012°10'1 0.6
2015-Apr-20 22:33N 54°15' E 012°10'0 0.0
2015-Apr-20 21:33N 54°15' E 012°10'0 0.0
2015-Apr-20 20:33N 54°15' E 012°10'0 0.0
2015-Apr-20 19:33N 54°15' E 012°10'0 0.0
2015-Apr-20 18:33N 54°15' E 012°10'0 0.0
2015-Apr-20 17:33N 54°15' E 012°10'0 0.0
2015-Apr-20 16:33N 54°15' E 012°10'0 0.0
2015-Apr-20 15:33N 54°15' E 012°10'0 0.0
2015-Apr-20 14:33N 54°15' E 012°10'0 0.0
2015-Apr-20 13:33N 54°15' E 012°10'0 0.0
2015-Apr-20 12:33N 54°15' E 012°10'0 0.0
2015-Apr-20 11:33N 54°15' E 012°10'0 0.0
2015-Apr-20 10:32N 54°15' E 012°10'0 0.0
2015-Apr-20 09:34N 54°15' E 012°10'0 0.0
2015-Apr-20 08:33N 54°15' E 012°10'0 0.0
2015-Apr-20 07:33N 54°15' E 012°10'0 0.0
2015-Apr-20 06:33N 54°15' E 012°10'0 0.0
2015-Apr-20 05:33N 54°15' E 012°10'0 0.0
2015-Apr-20 04:33N 54°15' E 012°10'0 0.0
2015-Apr-20 03:32N 54°15' E 012°10'0 0.0
2015-Apr-20 02:32N 54°15' E 012°10'0 0.0
2015-Apr-20 01:33N 54°15' E 012°10'0 0.0
2015-Apr-20 00:32N 54°15' E 012°10'0 0.0
2015-Apr-19 23:33N 54°15' E 012°10'0 0.0
2015-Apr-19 22:33N 54°15' E 012°10'0 0.0
2015-Apr-19 21:33N 54°15' E 012°10'0 0.0
2015-Apr-19 20:32N 54°15' E 012°10'0 0.0
2015-Apr-19 19:32N 54°15' E 012°10'0 0.0
2015-Apr-19 18:33N 54°15' E 012°10'0 0.0
2015-Apr-19 17:33N 54°15' E 012°10'0 0.0
2015-Apr-19 16:33N 54°15' E 012°10'0 0.0
2015-Apr-19 15:33N 54°15' E 012°10'0 0.5
2015-Apr-19 14:33N 54°14' E 012°09'2 1.7
2015-Apr-19 13:33N 54°13' E 012°08'0 0.0
2015-Apr-19 12:32N 54°13' E 012°08'0 0.0
2015-Apr-19 11:33N 54°13' E 012°08'0 0.0
2015-Apr-19 10:33N 54°13' E 012°08'0 0.0
2015-Apr-19 09:32N 54°13' E 012°08'0 0.0
2015-Apr-19 08:33N 54°13' E 012°08'1 0.6
2015-Apr-19 07:33N 54°13' E 012°07'3 3.2
2015-Apr-19 06:32N 54°09' E 012°06'1 0.5
2015-Apr-19 05:17N 54°09' E 012°06'0 0.0
2015-Apr-19 04:32N 54°09' E 012°06'0 0.0
2015-Apr-19 03:32N 54°09' E 012°06'0 0.0
2015-Apr-19 02:29N 54°09' E 012°06'0 0.0
2015-Apr-19 01:26N 54°09' E 012°06'0 0.0
2015-Apr-19 00:26N 54°09' E 012°06'0 0.0
2015-Apr-18 23:32N 54°09' E 012°06'0 0.0
2015-Apr-18 21:26N 54°09' E 012°06'0 0.0
2015-Apr-18 20:32N 54°09' E 012°06'0 0.0
2015-Apr-18 19:32N 54°09' E 012°06'0 0.0
2015-Apr-18 18:26N 54°09' E 012°06'0 0.0
2015-Apr-18 16:32N 54°09' E 012°06'0 0.0
2015-Apr-18 14:11N 54°09' E 012°06'0 0.0
2015-Apr-18 13:11N 54°09' E 012°06'0 0.0
2015-Apr-18 12:32N 54°09' E 012°06'0 0.0
2015-Apr-18 11:14N 54°09' E 012°06'0 0.0
2015-Apr-18 10:17N 54°09' E 012°06'0 0.0
2015-Apr-18 09:32N 54°09' E 012°06'0 0.0
2015-Apr-18 08:08N 54°09' E 012°06'0 0.0
2015-Apr-18 07:32N 54°09' E 012°06'0 0.0
2015-Apr-18 06:26N 54°09' E 012°06'0 0.0
2015-Apr-18 04:26N 54°09' E 012°06'0 0.0
2015-Apr-18 03:29N 54°09' E 012°06'0 0.0
2015-Apr-18 02:32N 54°09' E 012°06'0 0.0
2015-Apr-18 01:26N 54°09' E 012°06'0 0.0
2015-Apr-18 00:29N 54°09' E 012°06'0 0.0
2015-Apr-17 23:32N 54°09' E 012°06'0 0.0
2015-Apr-17 22:08N 54°09' E 012°06'0 0.0
2015-Apr-17 21:32N 54°09' E 012°06'0 0.0
2015-Apr-17 20:20N 54°09' E 012°06'0 0.0
2015-Apr-17 19:32N 54°09' E 012°06'0 0.0
2015-Apr-17 17:32N 54°09' E 012°06'0 0.0
2015-Apr-17 16:32N 54°09' E 012°06'0 0.0
2015-Apr-17 15:32N 54°09' E 012°06'0 0.0
2015-Apr-17 14:32N 54°09' E 012°06'0 0.0
2015-Apr-17 13:32N 54°09' E 012°06'0 0.0
2015-Apr-17 12:29N 54°09' E 012°06'0 0.0
2015-Apr-17 11:32N 54°09' E 012°06'0 0.0
2015-Apr-17 10:32N 54°09' E 012°06'0 0.0
2015-Apr-17 09:32N 54°09' E 012°06'0 0.0
2015-Apr-17 08:32N 54°09' E 012°06'0 0.0
2015-Apr-17 07:32N 54°09' E 012°06'0 0.0
2015-Apr-17 04:29N 54°09' E 012°06'0 0.0
2015-Apr-17 03:32N 54°09' E 012°06'0 0.0
2015-Apr-17 02:32N 54°09' E 012°06'0 0.0
2015-Apr-17 01:32N 54°09' E 012°06'0 0.0
2015-Apr-17 00:32N 54°09' E 012°06'0 0.0
2015-Apr-16 23:32N 54°09' E 012°06'0 0.0
2015-Apr-16 22:11N 54°09' E 012°06'0 0.0
2015-Apr-16 21:32N 54°09' E 012°06'0 0.0
2015-Apr-16 20:26N 54°09' E 012°06'0 0.0
2015-Apr-16 19:26N 54°09' E 012°06'0 0.0
2015-Apr-16 18:32N 54°09' E 012°06'0 0.0
2015-Apr-16 17:32N 54°09' E 012°06'0 0.0
2015-Apr-16 16:32N 54°09' E 012°06'0 0.0
2015-Apr-16 15:29N 54°09' E 012°06'0 0.0
2015-Apr-16 14:14N 54°09' E 012°06'0 0.0
2015-Apr-16 13:32N 54°09' E 012°06'0 0.0
2015-Apr-16 12:14N 54°09' E 012°06'0 0.0
2015-Apr-16 11:14N 54°09' E 012°06'0 0.0
2015-Apr-16 09:26N 54°09' E 012°06'0 0.0
2015-Apr-16 08:32N 54°09' E 012°06'0 0.0
2015-Apr-16 06:20N 54°09' E 012°06'0 0.0
2015-Apr-16 05:32N 54°09' E 012°06'0 0.0
2015-Apr-16 04:26N 54°09' E 012°06'0 0.0
2015-Apr-16 03:29N 54°09' E 012°06'0 0.0
2015-Apr-16 02:27N 54°09' E 012°06'0 0.0
2015-Apr-16 01:03N 54°09' E 012°06'0 0.0
2015-Apr-16 00:24N 54°09' E 012°06'0 0.0
2015-Apr-15 23:24N 54°09' E 012°06'0 0.0
2015-Apr-15 22:30N 54°09' E 012°06'0 0.0
2015-Apr-15 21:30N 54°09' E 012°06'0 0.0
2015-Apr-15 18:15N 54°09' E 012°06'0 0.0
2015-Apr-15 17:33N 54°09' E 012°06'0 0.0
2015-Apr-15 16:15N 54°09' E 012°06'0 0.0
2015-Apr-15 15:30N 54°09' E 012°06'0 0.0
2015-Apr-15 14:30N 54°09' E 012°06'0 0.0
2015-Apr-15 13:27N 54°09' E 012°06'0 0.0
2015-Apr-15 11:06N 54°09' E 012°06'0 0.0
2015-Apr-15 10:33N 54°09' E 012°06'0 0.0
2015-Apr-15 09:33N 54°09' E 012°06'0 0.0
2015-Apr-15 08:30N 54°09' E 012°06'0 0.0
2015-Apr-15 07:30N 54°09' E 012°06'0 0.0
2015-Apr-15 06:30N 54°09' E 012°06'0 0.0
2015-Apr-15 05:30N 54°09' E 012°06'0 0.0
2015-Apr-15 04:15N 54°09' E 012°06'0 0.0
2015-Apr-15 03:24N 54°09' E 012°06'0 0.0
2015-Apr-15 01:24N 54°09' E 012°06'0 0.0
2015-Apr-15 00:12N 54°09' E 012°06'0 0.0
2015-Apr-14 23:30N 54°09' E 012°06'0 0.0
2015-Apr-14 22:18N 54°09' E 012°06'0 0.0
2015-Apr-14 21:33N 54°09' E 012°06'0 0.0
2015-Apr-14 20:30N 54°09' E 012°06'0 0.0
2015-Apr-14 19:15N 54°09' E 012°06'0 0.0
2015-Apr-14 18:06N 54°09' E 012°06'0 0.0
2015-Apr-14 16:30N 54°09' E 012°06'0 0.0
2015-Apr-14 15:30N 54°09' E 012°06'0 0.0
2015-Apr-14 14:21N 54°09' E 012°06'0 0.0
2015-Apr-14 13:30N 54°09' E 012°06'0 0.0
2015-Apr-14 12:27N 54°09' E 012°06'0 0.0
2015-Apr-14 11:30N 54°09' E 012°06'0 0.0
2015-Apr-14 10:30N 54°09' E 012°06'0 0.0
2015-Apr-14 09:30N 54°09' E 012°06'0 0.0
2015-Apr-14 08:33N 54°09' E 012°06'0 0.0
2015-Apr-14 07:18N 54°09' E 012°06'0 0.0
2015-Apr-14 06:06N 54°09' E 012°06'0 0.0
2015-Apr-14 05:30N 54°09' E 012°06'0 0.0
2015-Apr-14 04:33N 54°09' E 012°06'0 0.0
2015-Apr-14 03:30N 54°09' E 012°06'0 0.0
2015-Apr-14 02:12N 54°09' E 012°06'0 0.0
2015-Apr-14 01:33N 54°09' E 012°06'0 0.0
2015-Apr-13 23:33N 54°09' E 012°06'0 0.0
2015-Apr-13 22:33N 54°09' E 012°06'0 0.0
2015-Apr-13 21:12N 54°09' E 012°06'0 0.0
2015-Apr-13 20:33N 54°09' E 012°06'0 0.0
2015-Apr-13 19:27N 54°09' E 012°06'0 0.0
2015-Apr-13 18:30N 54°09' E 012°06'0 0.0
2015-Apr-13 17:30N 54°09' E 012°06'0 0.0
2015-Apr-13 16:06N 54°09' E 012°06'0 0.0
2015-Apr-13 15:12N 54°09' E 012°06'0 0.0
2015-Apr-13 14:27N 54°09' E 012°06'0 0.0
2015-Apr-13 13:15N 54°09' E 012°06'0 0.0
2015-Apr-13 12:27N 54°09' E 012°06'0 0.0
2015-Apr-13 11:33N 54°09' E 012°06'0 0.0
2015-Apr-13 10:08N 54°09' E 012°06'0 0.0
2015-Apr-13 09:33N 54°09' E 012°06'0 0.0
2015-Apr-13 07:32N 54°09' E 012°06'0 0.0
2015-Apr-13 06:24N 54°09' E 012°06'0 0.0
2015-Apr-13 05:33N 54°09' E 012°06'0 0.0
2015-Apr-13 04:33N 54°09' E 012°06'0 0.0
2015-Apr-13 03:33N 54°09' E 012°06'0 0.0
2015-Apr-13 02:26N 54°09' E 012°06'0 0.0
2015-Apr-13 01:08N 54°09' E 012°06'0 0.0
2015-Apr-12 23:32N 54°09' E 012°06'0 0.0
2015-Apr-12 22:20N 54°09' E 012°06'0 0.0
2015-Apr-12 21:32N 54°09' E 012°06'0 0.0
2015-Apr-12 20:29N 54°09' E 012°06'0 0.0
2015-Apr-12 19:32N 54°09' E 012°06'0 0.0
2015-Apr-12 17:32N 54°09' E 012°06'0 0.0
2015-Apr-12 16:20N 54°09' E 012°06'0 0.0
2015-Apr-12 15:32N 54°09' E 012°06'0 0.0
2015-Apr-12 14:32N 54°09' E 012°06'0 0.0
2015-Apr-12 13:11N 54°09' E 012°06'0 0.0
2015-Apr-12 12:32N 54°09' E 012°06'0 0.0
2015-Apr-12 11:26N 54°09' E 012°06'0 0.0
2015-Apr-12 10:32N 54°09' E 012°06'0 0.0
2015-Apr-12 09:32N 54°09' E 012°06'0 0.0
2015-Apr-12 08:26N 54°09' E 012°06'0 0.0
2015-Apr-12 07:11N 54°09' E 012°06'0 0.0
2015-Apr-12 06:32N 54°09' E 012°06'0 0.0
2015-Apr-12 05:29N 54°09' E 012°06'0 0.0
2015-Apr-12 04:08N 54°09' E 012°06'0 0.0
2015-Apr-12 03:29N 54°09' E 012°06'0 0.0
2015-Apr-12 01:14N 54°09' E 012°06'0 0.0
2015-Apr-12 00:29N 54°09' E 012°06'0 0.0
2015-Apr-11 23:14N 54°09' E 012°06'0 0.0
2015-Apr-11 22:32N 54°09' E 012°06'0 0.0
2015-Apr-11 20:32N 54°09' E 012°06'0 0.0
2015-Apr-11 19:26N 54°09' E 012°06'0 0.0
2015-Apr-11 18:32N 54°09' E 012°06'  
Track history (hours):
 
Tides and Currents Weather Stations Pressure Air Temp Water Temp Dewpoint Dewpoint Depression Visibility Wind Speed Wind Dir Waves Ship Positions

Gouwestroom

Last reported at 2015-Apr-21 18:05 UTC. Time now 2015-Apr-21 19:07 UTC.
Position N 54°09' E 012°06'.

Length 20 m; draft 2.5 m.

Type: Tug. MMSI: 246166000.

Date/timePositionNaut miles runAvg speedWind from/ knotsBaromVisibWave heightAir tempDewpointWater temp
2015-Apr-21 18:05N 54°09' E 012°06'0 0.0
2015-Apr-21 17:29N 54°09' E 012°06'0 0.0
2015-Apr-21 16:31N 54°09' E 012°06'0 0.0
2015-Apr-21 15:31N 54°09' E 012°06'0 0.0
2015-Apr-21 14:28N 54°09' E 012°06'0 0.0
2015-Apr-21 13:28N 54°09' E 012°06'0 0.0
2015-Apr-21 12:28N 54°09' E 012°06'0 0.0
2015-Apr-21 11:22N 54°09' E 012°06'0 0.0
2015-Apr-21 10:25N 54°09' E 012°06'0 0.0
2015-Apr-21 09:28N 54°09' E 012°06'0 0.0
2015-Apr-21 08:31N 54°09' E 012°06'0 0.0
2015-Apr-21 07:28N 54°09' E 012°06'0 0.0
2015-Apr-21 06:31N 54°09' E 012°06'0 0.0
2015-Apr-21 05:31N 54°09' E 012°06'0 0.0
2015-Apr-21 04:28N 54°09' E 012°06'0 0.0
2015-Apr-21 03:31N 54°09' E 012°06'0 0.0
2015-Apr-21 02:31N 54°09' E 012°06'0 0.2
2015-Apr-21 01:33N 54°09' E 012°06'4 3.5
2015-Apr-21 00:33N 54°12' E 012°06'4 3.6
2015-Apr-20 23:33N 54°15' E 012°10'1 0.6
2015-Apr-20 22:33N 54°15' E 012°10'0 0.0
2015-Apr-20 21:33N 54°15' E 012°10'0 0.0
2015-Apr-20 20:33N 54°15' E 012°10'0 0.0
2015-Apr-20 19:33N 54°15' E 012°10'0 0.0
2015-Apr-20 18:33N 54°15' E 012°10'0 0.0
2015-Apr-20 17:33N 54°15' E 012°10'0 0.0
2015-Apr-20 16:33N 54°15' E 012°10'0 0.0
2015-Apr-20 15:33N 54°15' E 012°10'0 0.0
2015-Apr-20 14:33N 54°15' E 012°10'0 0.0
2015-Apr-20 13:33N 54°15' E 012°10'0 0.0
2015-Apr-20 12:33N 54°15' E 012°10'0 0.0
2015-Apr-20 11:33N 54°15' E 012°10'0 0.0
2015-Apr-20 10:32N 54°15' E 012°10'0 0.0
2015-Apr-20 09:34N 54°15' E 012°10'0 0.0
2015-Apr-20 08:33N 54°15' E 012°10'0 0.0
2015-Apr-20 07:33N 54°15' E 012°10'0 0.0
2015-Apr-20 06:33N 54°15' E 012°10'0 0.0
2015-Apr-20 05:33N 54°15' E 012°10'0 0.0
2015-Apr-20 04:33N 54°15' E 012°10'0 0.0
2015-Apr-20 03:32N 54°15' E 012°10'0 0.0
2015-Apr-20 02:32N 54°15' E 012°10'0 0.0
2015-Apr-20 01:33N 54°15' E 012°10'0 0.0
2015-Apr-20 00:32N 54°15' E 012°10'0 0.0
2015-Apr-19 23:33N 54°15' E 012°10'0 0.0
2015-Apr-19 22:33N 54°15' E 012°10'0 0.0
2015-Apr-19 21:33N 54°15' E 012°10'0 0.0
2015-Apr-19 20:32N 54°15' E 012°10'0 0.0
2015-Apr-19 19:32N 54°15' E 012°10'0 0.0
2015-Apr-19 18:33N 54°15' E 012°10'0 0.0
2015-Apr-19 17:33N 54°15' E 012°10'0 0.0
2015-Apr-19 16:33N 54°15' E 012°10'0 0.0
2015-Apr-19 15:33N 54°15' E 012°10'0 0.5
2015-Apr-19 14:33N 54°14' E 012°09'2 1.7
2015-Apr-19 13:33N 54°13' E 012°08'0 0.0
2015-Apr-19 12:32N 54°13' E 012°08'0 0.0
2015-Apr-19 11:33N 54°13' E 012°08'0 0.0
2015-Apr-19 10:33N 54°13' E 012°08'0 0.0
2015-Apr-19 09:32N 54°13' E 012°08'0 0.0
2015-Apr-19 08:33N 54°13' E 012°08'1 0.6
2015-Apr-19 07:33N 54°13' E 012°07'3 3.2
2015-Apr-19 06:32N 54°09' E 012°06'1 0.5
2015-Apr-19 05:17N 54°09' E 012°06'0 0.0
2015-Apr-19 04:32N 54°09' E 012°06'0 0.0
2015-Apr-19 03:32N 54°09' E 012°06'0 0.0
2015-Apr-19 02:29N 54°09' E 012°06'0 0.0
2015-Apr-19 01:26N 54°09' E 012°06'0 0.0
2015-Apr-19 00:26N 54°09' E 012°06'0 0.0
2015-Apr-18 23:32N 54°09' E 012°06'0 0.0
2015-Apr-18 21:26N 54°09' E 012°06'0 0.0
2015-Apr-18 20:32N 54°09' E 012°06'0 0.0
2015-Apr-18 19:32N 54°09' E 012°06'0 0.0
2015-Apr-18 18:26N 54°09' E 012°06'0 0.0
2015-Apr-18 16:32N 54°09' E 012°06'0 0.0
2015-Apr-18 14:11N 54°09' E 012°06'0 0.0
2015-Apr-18 13:11N 54°09' E 012°06'0 0.0
2015-Apr-18 12:32N 54°09' E 012°06'0 0.0
2015-Apr-18 11:14N 54°09' E 012°06'0 0.0
2015-Apr-18 10:17N 54°09' E 012°06'0 0.0
2015-Apr-18 09:32N 54°09' E 012°06'0 0.0
2015-Apr-18 08:08N 54°09' E 012°06'0 0.0
2015-Apr-18 07:32N 54°09' E 012°06'0 0.0
2015-Apr-18 06:26N 54°09' E 012°06'0 0.0
2015-Apr-18 04:26N 54°09' E 012°06'0 0.0
2015-Apr-18 03:29N 54°09' E 012°06'0 0.0
2015-Apr-18 02:32N 54°09' E 012°06'0 0.0
2015-Apr-18 01:26N 54°09' E 012°06'0 0.0
2015-Apr-18 00:29N 54°09' E 012°06'0 0.0
2015-Apr-17 23:32N 54°09' E 012°06'0 0.0
2015-Apr-17 22:08N 54°09' E 012°06'0 0.0
2015-Apr-17 21:32N 54°09' E 012°06'0 0.0
2015-Apr-17 20:20N 54°09' E 012°06'0 0.0
2015-Apr-17 19:32N 54°09' E 012°06'0 0.0
2015-Apr-17 17:32N 54°09' E 012°06'0 0.0
2015-Apr-17 16:32N 54°09' E 012°06'0 0.0
2015-Apr-17 15:32N 54°09' E 012°06'0 0.0
2015-Apr-17 14:32N 54°09' E 012°06'0 0.0
2015-Apr-17 13:32N 54°09' E 012°06'0 0.0
2015-Apr-17 12:29N 54°09' E 012°06'0 0.0
2015-Apr-17 11:32N 54°09' E 012°06'0 0.0
2015-Apr-17 10:32N 54°09' E 012°06'0 0.0
2015-Apr-17 09:32N 54°09' E 012°06'0 0.0
2015-Apr-17 08:32N 54°09' E 012°06'0 0.0
2015-Apr-17 07:32N 54°09' E 012°06'0 0.0
2015-Apr-17 04:29N 54°09' E 012°06'0 0.0
2015-Apr-17 03:32N 54°09' E 012°06'0 0.0
2015-Apr-17 02:32N 54°09' E 012°06'0 0.0
2015-Apr-17 01:32N 54°09' E 012°06'0 0.0
2015-Apr-17 00:32N 54°09' E 012°06'0 0.0
2015-Apr-16 23:32N 54°09' E 012°06'0 0.0
2015-Apr-16 22:11N 54°09' E 012°06'0 0.0
2015-Apr-16 21:32N 54°09' E 012°06'0 0.0
2015-Apr-16 20:26N 54°09' E 012°06'0 0.0
2015-Apr-16 19:26N 54°09' E 012°06'0 0.0
2015-Apr-16 18:32N 54°09' E 012°06'0 0.0
2015-Apr-16 17:32N 54°09' E 012°06'0 0.0
2015-Apr-16 16:32N 54°09' E 012°06'0 0.0
2015-Apr-16 15:29N 54°09' E 012°06'0 0.0
2015-Apr-16 14:14N 54°09' E 012°06'0 0.0
2015-Apr-16 13:32N 54°09' E 012°06'0 0.0
2015-Apr-16 12:14N 54°09' E 012°06'0 0.0
2015-Apr-16 11:14N 54°09' E 012°06'0 0.0
2015-Apr-16 09:26N 54°09' E 012°06'0 0.0
2015-Apr-16 08:32N 54°09' E 012°06'0 0.0
2015-Apr-16 06:20N 54°09' E 012°06'0 0.0
2015-Apr-16 05:32N 54°09' E 012°06'0 0.0
2015-Apr-16 04:26N 54°09' E 012°06'0 0.0
2015-Apr-16 03:29N 54°09' E 012°06'0 0.0
2015-Apr-16 02:27N 54°09' E 012°06'0 0.0
2015-Apr-16 01:03N 54°09' E 012°06'0 0.0
2015-Apr-16 00:24N 54°09' E 012°06'0 0.0
2015-Apr-15 23:24N 54°09' E 012°06'0 0.0
2015-Apr-15 22:30N 54°09' E 012°06'0 0.0
2015-Apr-15 21:30N 54°09' E 012°06'0 0.0
2015-Apr-15 18:15N 54°09' E 012°06'0 0.0
2015-Apr-15 17:33N 54°09' E 012°06'0 0.0
2015-Apr-15 16:15N 54°09' E 012°06'0 0.0
2015-Apr-15 15:30N 54°09' E 012°06'0 0.0
2015-Apr-15 14:30N 54°09' E 012°06'0 0.0
2015-Apr-15 13:27N 54°09' E 012°06'0 0.0
2015-Apr-15 11:06N 54°09' E 012°06'0 0.0
2015-Apr-15 10:33N 54°09' E 012°06'0 0.0
2015-Apr-15 09:33N 54°09' E 012°06'0 0.0
2015-Apr-15 08:30N 54°09' E 012°06'0 0.0
2015-Apr-15 07:30N 54°09' E 012°06'0 0.0
2015-Apr-15 06:30N 54°09' E 012°06'0 0.0
2015-Apr-15 05:30N 54°09' E 012°06'0 0.0
2015-Apr-15 04:15N 54°09' E 012°06'0 0.0
2015-Apr-15 03:24N 54°09' E 012°06'0 0.0
2015-Apr-15 01:24N 54°09' E 012°06'0 0.0
2015-Apr-15 00:12N 54°09' E 012°06'0 0.0
2015-Apr-14 23:30N 54°09' E 012°06'0 0.0
2015-Apr-14 22:18N 54°09' E 012°06'0 0.0
2015-Apr-14 21:33N 54°09' E 012°06'0 0.0
2015-Apr-14 20:30N 54°09' E 012°06'0 0.0
2015-Apr-14 19:15N 54°09' E 012°06'0 0.0
2015-Apr-14 18:06N 54°09' E 012°06'0 0.0
2015-Apr-14 16:30N 54°09' E 012°06'0 0.0
2015-Apr-14 15:30N 54°09' E 012°06'0 0.0
2015-Apr-14 14:21N 54°09' E 012°06'0 0.0
2015-Apr-14 13:30N 54°09' E 012°06'0 0.0
2015-Apr-14 12:27N 54°09' E 012°06'0 0.0
2015-Apr-14 11:30N 54°09' E 012°06'0 0.0
2015-Apr-14 10:30N 54°09' E 012°06'0 0.0
2015-Apr-14 09:30N 54°09' E 012°06'0 0.0
2015-Apr-14 08:33N 54°09' E 012°06'0 0.0
2015-Apr-14 07:18N 54°09' E 012°06'0 0.0
2015-Apr-14 06:06N 54°09' E 012°06'0 0.0
2015-Apr-14 05:30N 54°09' E 012°06'0 0.0
2015-Apr-14 04:33N 54°09' E 012°06'0 0.0
2015-Apr-14 03:30N 54°09' E 012°06'0 0.0
2015-Apr-14 02:12N 54°09' E 012°06'0 0.0
2015-Apr-14 01:33N 54°09' E 012°06'0 0.0
2015-Apr-13 23:33N 54°09' E 012°06'0 0.0
2015-Apr-13 22:33N 54°09' E 012°06'0 0.0
2015-Apr-13 21:12N 54°09' E 012°06'0 0.0
2015-Apr-13 20:33N 54°09' E 012°06'0 0.0
2015-Apr-13 19:27N 54°09' E 012°06'0 0.0
2015-Apr-13 18:30N 54°09' E 012°06'0 0.0
2015-Apr-13 17:30N 54°09' E 012°06'0 0.0
2015-Apr-13 16:06N 54°09' E 012°06'0 0.0
2015-Apr-13 15:12N 54°09' E 012°06'0 0.0
2015-Apr-13 14:27N 54°09' E 012°06'0 0.0
2015-Apr-13 13:15N 54°09' E 012°06'0 0.0
2015-Apr-13 12:27N 54°09' E 012°06'0 0.0
2015-Apr-13 11:33N 54°09' E 012°06'0 0.0
2015-Apr-13 10:08N 54°09' E 012°06'0 0.0
2015-Apr-13 09:33N 54°09' E 012°06'0 0.0
2015-Apr-13 07:32N 54°09' E 012°06'0 0.0
2015-Apr-13 06:24N 54°09' E 012°06'0 0.0
2015-Apr-13 05:33N 54°09' E 012°06'0 0.0
2015-Apr-13 04:33N 54°09' E 012°06'0 0.0
2015-Apr-13 03:33N 54°09' E 012°06'0 0.0
2015-Apr-13 02:26N 54°09' E 012°06'0 0.0
2015-Apr-13 01:08N 54°09' E 012°06'0 0.0
2015-Apr-12 23:32N 54°09' E 012°06'0 0.0
2015-Apr-12 22:20N 54°09' E 012°06'0 0.0
2015-Apr-12 21:32N 54°09' E 012°06'0 0.0
2015-Apr-12 20:29N 54°09' E 012°06'0 0.0
2015-Apr-12 19:32N 54°09' E 012°06'0 0.0
2015-Apr-12 17:32N 54°09' E 012°06'0 0.0
2015-Apr-12 16:20N 54°09' E 012°06'0 0.0
2015-Apr-12 15:32N 54°09' E 012°06'0 0.0
2015-Apr-12 14:32N 54°09' E 012°06'0 0.0
2015-Apr-12 13:11N 54°09' E 012°06'0 0.0
2015-Apr-12 12:32N 54°09' E 012°06'0 0.0
2015-Apr-12 11:26N 54°09' E 012°06'0 0.0
2015-Apr-12 10:32N 54°09' E 012°06'0 0.0
2015-Apr-12 09:32N 54°09' E 012°06'0 0.0
2015-Apr-12 08:26N 54°09' E 012°06'0 0.0
2015-Apr-12 07:11N 54°09' E 012°06'0 0.0
2015-Apr-12 06:32N 54°09' E 012°06'0 0.0
2015-Apr-12 05:29N 54°09' E 012°06'0 0.0
2015-Apr-12 04:08N 54°09' E 012°06'0 0.0
2015-Apr-12 03:29N 54°09' E 012°06'0 0.0
2015-Apr-12 01:14N 54°09' E 012°06'0 0.0
2015-Apr-12 00:29N 54°09' E 012°06'0 0.0
2015-Apr-11 23:14N 54°09' E 012°06'0 0.0
2015-Apr-11 22:32N 54°09' E 012°06'0 0.0
2015-Apr-11 20:32N 54°09' E 012°06'0 0.0
2015-Apr-11 19:26N 54°09' E 012°06'0 0.0
2015-Apr-11 18:32N 54°09' E 012°06'  

Dump ship's entire track history